Time;durP1;ratioP1;P1;durP2;ratioP2;P2;SDS_P1;SDS_P2;PMS_P1;PMS_P2;Temp;Humidity;BMP_temperature;BMP_pressure;BME280_temperature;BME280_humidity;BME280_pressure;Samples;Min_cycle;Max_cycle;Signal;HPM_P1;HPM_P2
2022/05/16 00:01:45;;;;;;;7.40;2.80;;;;;16.80;100999.00;;;;4931052;29;20606;-72
2022/05/16 00:04:32;;;;;;;5.80;3.00;;;;;16.90;100990.00;;;;4930663;29;20236;-72
2022/05/16 00:07:20;;;;;;;4.47;2.73;;;;;16.80;100989.00;;;;4930807;29;20232;-73
2022/05/16 00:10:08;;;;;;;6.70;3.27;;;;;16.80;100996.00;;;;4934208;29;20580;-71
2022/05/16 00:12:54;;;;;;;8.87;3.27;;;;;16.80;100957.00;;;;4923698;29;20217;-72
2022/05/16 00:15:41;;;;;;;4.60;2.70;;;;;16.60;100996.00;;;;4931217;29;20221;-74
2022/05/16 00:18:29;;;;;;;6.80;2.80;;;;;16.70;101001.00;;;;4930816;29;20220;-72
2022/05/16 00:21:16;;;;;;;4.07;2.57;;;;;16.50;100995.00;;;;4931029;29;20213;-72
2022/05/16 00:24:02;;;;;;;5.50;2.80;;;;;16.40;100991.00;;;;4924088;29;20761;-71
2022/05/16 00:26:48;;;;;;;4.03;2.83;;;;;16.40;100991.00;;;;4930953;29;20273;-72
2022/05/16 00:29:34;;;;;;;3.97;2.80;;;;;16.30;100978.00;;;;4922726;29;20211;-71
2022/05/16 00:32:23;;;;;;;7.93;3.20;;;;;16.40;100985.00;;;;4930550;29;20216;-72
2022/05/16 00:35:13;;;;;;;4.67;2.80;;;;;16.30;100985.00;;;;4923909;29;20716;-69
2022/05/16 00:37:59;;;;;;;6.53;3.13;;;;;16.40;100982.00;;;;4914677;29;20233;-73
2022/05/16 00:40:45;;;;;;;6.87;3.20;;;;;16.30;100980.00;;;;4918215;29;20276;-71
2022/05/16 00:43:47;;;;;;;3.20;2.40;;;;;16.30;100969.00;;;;4925033;29;20303;-71
2022/05/16 00:46:34;;;;;;;4.30;3.30;;;;;16.30;100981.00;;;;4927405;29;20370;-73
2022/05/16 00:49:25;;;;;;;5.67;3.67;;;;;16.30;100977.00;;;;4925314;29;20232;-72
2022/05/16 00:52:16;;;;;;;9.07;3.33;;;;;16.30;100970.00;;;;4926858;29;20209;-71
2022/05/16 00:55:09;;;;;;;5.97;3.77;;;;;16.20;100980.00;;;;4928879;29;20231;-72
2022/05/16 00:57:58;;;;;;;4.63;3.07;;;;;16.20;100979.00;;;;4929194;29;20386;-72
2022/05/16 01:00:46;;;;;;;5.27;2.87;;;;;16.00;100967.00;;;;4928909;29;20227;-72
2022/05/16 01:06:38;;;;;;;5.53;3.30;;;;;16.10;100962.00;;;;4928470;29;20902;-71
2022/05/16 01:09:26;;;;;;;5.53;3.53;;;;;16.00;100960.00;;;;4933042;29;20383;-73
2022/05/16 01:12:13;;;;;;;6.17;3.30;;;;;16.00;100957.00;;;;4925484;29;20218;-73
2022/05/16 01:15:01;;;;;;;5.37;3.30;;;;;15.80;100956.00;;;;4923943;29;20284;-72
2022/05/16 01:17:47;;;;;;;4.87;3.17;;;;;15.80;100960.00;;;;4927266;29;20589;-71
2022/05/16 01:20:48;;;;;;;4.70;3.07;;;;;15.90;100959.00;;;;4919590;29;20753;-71
2022/05/16 01:23:40;;;;;;;7.43;3.20;;;;;15.90;100956.00;;;;4929419;29;20248;-71
2022/05/16 01:26:29;;;;;;;7.70;4.07;;;;;15.80;100944.00;;;;4929616;29;20429;-71
2022/05/16 01:29:15;;;;;;;5.47;3.23;;;;;15.70;100942.00;;;;4930131;29;20295;-72
2022/05/16 01:32:01;;;;;;;6.37;3.10;;;;;15.70;100945.00;;;;4919164;29;20291;-72
2022/05/16 01:34:49;;;;;;;6.20;3.43;;;;;15.70;100930.00;;;;4929583;29;20244;-72
2022/05/16 01:40:41;;;;;;;5.63;3.40;;;;;15.70;100936.00;;;;4929839;29;20226;-73
2022/05/16 01:43:30;;;;;;;5.40;3.10;;;;;15.60;100934.00;;;;4928968;29;20231;-71
2022/05/16 01:46:20;;;;;;;5.50;3.10;;;;;15.50;100928.00;;;;4923531;29;20816;-72
2022/05/16 01:49:08;;;;;;;5.87;3.20;;;;;15.60;100935.00;;;;4918622;29;20539;-72
2022/05/16 01:51:54;;;;;;;4.80;3.33;;;;;15.50;100933.00;;;;4922882;29;20217;-71
2022/05/16 01:54:41;;;;;;;5.80;3.30;;;;;15.50;100928.00;;;;4914022;29;20232;-71
2022/05/16 01:57:28;;;;;;;4.43;3.30;;;;;15.40;100928.00;;;;4926365;29;20317;-73
2022/05/16 02:00:16;;;;;;;5.53;3.20;;;;;15.50;100928.00;;;;4923640;29;20258;-71
2022/05/16 02:03:05;;;;;;;5.70;3.13;;;;;15.40;100926.00;;;;4915365;29;20212;-71
2022/05/16 02:05:51;;;;;;;7.50;3.47;;;;;15.50;100916.00;;;;4926731;29;20860;-70
2022/05/16 02:08:38;;;;;;;4.77;3.30;;;;;15.50;100907.00;;;;4919787;29;20227;-71
2022/05/16 02:11:24;;;;;;;5.37;3.30;;;;;15.50;100921.00;;;;4932478;29;20213;-73
2022/05/16 02:14:12;;;;;;;4.23;3.17;;;;;15.40;100917.00;;;;4924267;29;20314;-72
2022/05/16 02:16:58;;;;;;;7.73;3.00;;;;;15.40;100919.00;;;;4929800;29;20221;-71
2022/05/16 02:19:44;;;;;;;8.30;3.60;;;;;15.40;100914.00;;;;4921180;29;20346;-70
2022/05/16 02:25:37;;;;;;;7.70;3.40;;;;;15.10;100908.00;;;;4921590;29;20770;-73
2022/05/16 02:28:24;;;;;;;5.57;3.13;;;;;15.10;100904.00;;;;4929049;29;20233;-73
2022/05/16 02:31:12;;;;;;;8.30;3.73;;;;;15.10;100904.00;;;;4929343;29;20223;-73
2022/05/16 02:33:58;;;;;;;7.10;3.50;;;;;15.00;100901.00;;;;4922063;29;20889;-73
2022/05/16 02:36:45;;;;;;;5.20;3.40;;;;;15.00;100895.00;;;;4928970;29;20333;-73
2022/05/16 02:39:32;;;;;;;4.97;3.60;;;;;14.80;100887.00;;;;4929876;29;20231;-73
2022/05/16 02:42:18;;;;;;;6.53;3.53;;;;;14.80;100880.00;;;;4953409;29;20242;-71
2022/05/16 02:45:05;;;;;;;6.57;3.43;;;;;14.70;100879.00;;;;4946901;29;20267;-71
2022/05/16 02:47:52;;;;;;;8.13;3.50;;;;;14.60;100873.00;;;;4952465;29;20232;-71
2022/05/16 02:50:39;;;;;;;8.30;3.90;;;;;14.60;100875.00;;;;4952512;29;20214;-73
2022/05/16 02:53:26;;;;;;;7.07;3.20;;;;;14.50;100864.00;;;;4953776;28;20294;-73
2022/05/16 02:56:12;;;;;;;7.60;3.73;;;;;14.50;100853.00;;;;4947803;29;20258;-73
2022/05/16 02:58:58;;;;;;;8.57;3.50;;;;;14.60;100860.00;;;;4946667;29;20206;-73
2022/05/16 03:01:45;;;;;;;5.17;3.50;;;;;14.60;100864.00;;;;4952997;29;20221;-71
2022/05/16 03:04:33;;;;;;;6.83;3.70;;;;;14.50;100853.00;;;;4949612;29;20239;-71
2022/05/16 03:07:20;;;;;;;7.10;3.67;;;;;14.70;100855.00;;;;4931070;29;20249;-70
2022/05/16 03:10:08;;;;;;;7.47;3.77;;;;;14.60;100851.00;;;;4929727;29;20365;-72
2022/05/16 03:12:54;;;;;;;6.70;3.53;;;;;14.70;100793.00;;;;4924585;29;20217;-72
2022/05/16 03:15:41;;;;;;;6.53;3.57;;;;;14.80;100837.00;;;;4924563;29;20226;-73
2022/05/16 03:18:28;;;;;;;3.70;3.10;;;;;14.80;100828.00;;;;4925030;29;20222;-72
2022/05/16 03:21:16;;;;;;;8.77;3.47;;;;;14.90;100838.00;;;;4926984;29;20300;-72
2022/05/16 03:24:02;;;;;;;8.33;3.57;;;;;14.90;100845.00;;;;4925431;29;20225;-69
2022/05/16 03:26:49;;;;;;;6.10;3.50;;;;;15.00;100844.00;;;;4928848;29;20355;-71
2022/05/16 03:29:35;;;;;;;8.23;3.90;;;;;15.00;100844.00;;;;4929618;29;20241;-72
2022/05/16 03:32:21;;;;;;;7.10;3.30;;;;;15.10;100833.00;;;;4931650;29;20223;-73
2022/05/16 03:35:08;;;;;;;6.63;3.50;;;;;15.10;100825.00;;;;4922885;29;20241;-71
2022/05/16 03:37:56;;;;;;;6.53;3.73;;;;;15.10;100833.00;;;;4924421;29;20217;-72
2022/05/16 03:40:45;;;;;;;6.97;3.63;;;;;15.10;100825.00;;;;4923718;29;20209;-72
2022/05/16 03:43:31;;;;;;;8.20;3.83;;;;;15.10;100832.00;;;;4930816;29;20612;-72
2022/05/16 03:46:17;;;;;;;5.97;4.07;;;;;15.10;100828.00;;;;4931224;29;20289;-72
2022/05/16 03:49:04;;;;;;;4.30;3.40;;;;;15.00;100824.00;;;;4926348;29;20274;-72
2022/05/16 03:51:50;;;;;;;6.83;3.80;;;;;15.00;100819.00;;;;4931002;29;20205;-72
2022/05/16 03:54:38;;;;;;;6.13;3.80;;;;;15.00;100825.00;;;;4931133;29;20233;-72
2022/05/16 03:57:24;;;;;;;5.50;3.63;;;;;15.00;100823.00;;;;4923641;29;20226;-71
2022/05/16 04:00:14;;;;;;;5.83;3.50;;;;;14.90;100838.00;;;;4925700;29;20202;-73
2022/05/16 04:03:00;;;;;;;8.13;3.67;;;;;14.90;100836.00;;;;4924158;29;20301;-74
2022/05/16 04:05:46;;;;;;;6.40;3.70;;;;;14.90;100834.00;;;;4925350;29;20213;-73
2022/05/16 04:08:33;;;;;;;5.80;3.70;;;;;15.00;100833.00;;;;4930816;29;20229;-73
2022/05/16 04:11:22;;;;;;;5.87;3.80;;;;;14.90;100839.00;;;;4931144;29;20300;-73
2022/05/16 04:14:08;;;;;;;7.77;3.80;;;;;15.00;100833.00;;;;4917231;29;20242;-72
2022/05/16 04:16:55;;;;;;;7.40;3.60;;;;;14.90;100832.00;;;;4925379;29;20206;-73
2022/05/16 04:19:41;;;;;;;7.53;4.17;;;;;14.90;100838.00;;;;4929813;29;20564;-72
2022/05/16 04:22:27;;;;;;;10.40;4.13;;;;;15.10;100822.00;;;;4930724;29;20355;-72
2022/05/16 04:25:17;;;;;;;7.60;3.77;;;;;15.20;100837.00;;;;4919489;29;20237;-72
2022/05/16 04:28:08;;;;;;;6.70;3.93;;;;;15.30;100835.00;;;;4924382;29;20943;-71
2022/05/16 04:30:54;;;;;;;8.83;4.97;;;;;15.40;100832.00;;;;4923274;29;20696;-73
2022/05/16 04:33:40;;;;;;;8.33;3.53;;;;;15.60;100837.00;;;;4930192;29;20703;-72
2022/05/16 04:36:27;;;;;;;6.77;3.53;;;;;15.50;100830.00;;;;4922804;29;20341;-73
2022/05/16 04:39:13;;;;;;;6.40;3.83;;;;;15.60;100837.00;;;;4933116;29;20236;-74
2022/05/16 04:45:05;;;;;;;8.77;3.90;;;;;15.60;100836.00;;;;4922123;29;20321;-73
2022/05/16 04:47:53;;;;;;;5.03;3.30;;;;;15.70;100831.00;;;;4925478;29;20225;-74
2022/05/16 04:50:40;;;;;;;10.83;3.53;;;;;15.70;100834.00;;;;4926224;29;20327;-73
2022/05/16 04:53:26;;;;;;;6.47;3.93;;;;;15.70;100825.00;;;;4920937;29;20763;-72
2022/05/16 04:56:12;;;;;;;8.27;4.10;;;;;15.70;100833.00;;;;4923482;29;20215;-73
2022/05/16 04:58:58;;;;;;;5.83;4.03;;;;;15.70;100833.00;;;;4918032;29;20634;-73
2022/05/16 05:01:46;;;;;;;11.83;3.43;;;;;15.70;100826.00;;;;4927697;29;20224;-72
2022/05/16 05:04:33;;;;;;;6.13;4.23;;;;;15.80;100830.00;;;;4920384;29;20270;-73
2022/05/16 05:07:19;;;;;;;5.90;3.70;;;;;15.80;100834.00;;;;4928747;29;20887;-72
2022/05/16 05:16:21;;;;;;;6.93;3.47;;;;;16.10;100800.00;;;;4923953;29;20642;-74
2022/05/16 05:19:09;;;;;;;6.33;4.00;;;;;16.10;100828.00;;;;4923627;29;20221;-71
2022/05/16 05:21:56;;;;;;;8.03;3.93;;;;;16.10;100837.00;;;;4923371;29;20210;-73
2022/05/16 05:24:42;;;;;;;9.27;3.63;;;;;16.30;100830.00;;;;4927182;29;20383;-73
2022/05/16 05:27:28;;;;;;;7.27;3.97;;;;;16.30;100830.00;;;;4926359;29;20296;-72
2022/05/16 05:30:19;;;;;;;6.13;4.00;;;;;16.30;100834.00;;;;4924283;29;20696;-70
2022/05/16 05:33:06;;;;;;;5.20;3.50;;;;;16.40;100839.00;;;;4924344;29;20287;-70
2022/05/16 05:35:53;;;;;;;8.10;3.53;;;;;16.50;100844.00;;;;4930016;29;20247;-71
2022/05/16 05:38:39;;;;;;;4.60;3.07;;;;;16.50;100844.00;;;;4927802;29;20594;-70
2022/05/16 05:41:26;;;;;;;8.00;3.60;;;;;16.60;100837.00;;;;4921884;29;20222;-71
2022/05/16 05:44:12;;;;;;;7.90;3.63;;;;;16.60;100829.00;;;;4926061;29;20247;-70
2022/05/16 05:47:00;;;;;;;9.23;3.97;;;;;16.70;100836.00;;;;4922389;29;20214;-70
2022/05/16 05:49:46;;;;;;;7.53;3.70;;;;;16.80;100833.00;;;;4928940;29;20230;-70
2022/05/16 05:52:34;;;;;;;9.27;3.50;;;;;16.90;100833.00;;;;4929077;29;20212;-69
2022/05/16 05:55:20;;;;;;;10.83;4.10;;;;;17.10;100839.00;;;;4929206;29;20392;-69
2022/05/16 05:58:07;;;;;;;5.23;3.30;;;;;17.10;100847.00;;;;4929146;29;20722;-70
2022/05/16 06:00:54;;;;;;;5.83;3.10;;;;;17.20;100836.00;;;;4913826;29;20213;-69
2022/05/16 06:03:40;;;;;;;8.03;3.57;;;;;17.30;100827.00;;;;4927181;29;20364;-72
2022/05/16 06:06:27;;;;;;;7.60;3.57;;;;;17.40;100834.00;;;;4920360;29;20208;-71
2022/05/16 06:09:15;;;;;;;6.17;3.50;;;;;17.20;100838.00;;;;4918235;29;20249;-71
2022/05/16 06:12:03;;;;;;;7.17;3.60;;;;;17.30;100839.00;;;;4922611;29;20216;-70
2022/05/16 06:14:50;;;;;;;9.53;3.87;;;;;17.60;100836.00;;;;4928774;29;20241;-68
2022/05/16 06:17:36;;;;;;;10.70;3.87;;;;;17.60;100822.00;;;;4927071;29;20215;-69
2022/05/16 06:20:22;;;;;;;7.30;3.43;;;;;17.90;100831.00;;;;4929027;29;20589;-71
2022/05/16 06:23:09;;;;;;;8.40;3.40;;;;;17.90;100831.00;;;;4923382;29;20691;-72
2022/05/16 06:25:57;;;;;;;10.40;3.67;;;;;18.20;100846.00;;;;4919164;29;20213;-71
2022/05/16 06:28:44;;;;;;;9.73;3.20;;;;;18.20;100844.00;;;;4919843;29;20256;-75
2022/05/16 06:31:31;;;;;;;7.47;3.97;;;;;18.20;100836.00;;;;4920770;29;20212;-73
2022/05/16 06:34:17;;;;;;;8.10;3.53;;;;;18.30;100847.00;;;;4928810;29;20333;-70
2022/05/16 06:37:04;;;;;;;7.07;3.43;;;;;18.30;100848.00;;;;4924563;29;20358;-71
2022/05/16 06:39:50;;;;;;;6.83;3.67;;;;;18.40;100838.00;;;;4927740;29;20220;-72
2022/05/16 06:42:38;;;;;;;7.50;3.33;;;;;18.50;100848.00;;;;4923220;29;20337;-75
2022/05/16 06:45:25;;;;;;;4.87;3.63;;;;;18.60;100844.00;;;;4932562;29;20232;-72
2022/05/16 06:48:11;;;;;;;4.40;3.03;;;;;18.80;100844.00;;;;4921488;29;20338;-72
2022/05/16 06:50:58;;;;;;;5.23;3.20;;;;;19.10;100831.00;;;;4925603;29;20726;-72
2022/05/16 06:53:45;;;;;;;7.07;3.60;;;;;19.20;100839.00;;;;4932303;29;20381;-70
2022/05/16 06:56:31;;;;;;;7.30;3.47;;;;;19.40;100844.00;;;;4932128;29;20286;-70
2022/05/16 06:59:19;;;;;;;8.90;3.47;;;;;19.40;100845.00;;;;4932658;29;20231;-71
2022/05/16 07:02:07;;;;;;;7.50;3.50;;;;;19.50;100844.00;;;;4925878;29;20269;-72
2022/05/16 07:04:56;;;;;;;6.50;3.50;;;;;19.70;100828.00;;;;4924166;29;20709;-72
2022/05/16 07:07:42;;;;;;;5.80;3.20;;;;;20.10;100832.00;;;;4930518;29;20232;-73
2022/05/16 07:10:28;;;;;;;5.47;3.10;;;;;20.10;100831.00;;;;4930333;29;20240;-72
2022/05/16 07:13:15;;;;;;;7.97;4.47;;;;;20.20;100831.00;;;;4930786;29;20224;-71
2022/05/16 07:16:03;;;;;;;7.37;3.50;;;;;20.20;100837.00;;;;4928479;29;20345;-71
2022/05/16 07:18:50;;;;;;;6.83;3.23;;;;;20.30;100839.00;;;;4928414;29;20237;-72
2022/05/16 07:21:38;;;;;;;8.47;3.30;;;;;20.20;100858.00;;;;4931055;29;20225;-71
2022/05/16 07:24:24;;;;;;;7.37;3.20;;;;;20.20;100852.00;;;;4929849;29;20910;-70
2022/05/16 07:30:15;;;;;;;6.73;3.30;;;;;20.20;100855.00;;;;4929123;29;20261;-71
2022/05/16 07:33:04;;;;;;;5.57;3.13;;;;;20.10;100866.00;;;;4927421;29;20213;-70
2022/05/16 07:35:52;;;;;;;6.13;3.27;;;;;20.10;100867.00;;;;4931774;29;20224;-70
2022/05/16 07:38:39;;;;;;;6.63;3.50;;;;;20.10;100881.00;;;;4930305;29;20214;-70
2022/05/16 07:41:25;;;;;;;7.20;3.27;;;;;20.10;100881.00;;;;4927017;29;20212;-71
2022/05/16 07:44:11;;;;;;;10.23;3.03;;;;;20.10;100887.00;;;;4929356;29;20241;-70
2022/05/16 07:46:57;;;;;;;5.57;3.17;;;;;20.10;100895.00;;;;4929438;29;20983;-71
2022/05/16 07:49:45;;;;;;;4.97;3.03;;;;;20.10;100912.00;;;;4928635;29;20233;-73
2022/05/16 07:52:33;;;;;;;8.70;3.13;;;;;20.10;100912.00;;;;4929093;29;20217;-73
2022/05/16 07:55:21;;;;;;;8.60;2.90;;;;;20.00;100918.00;;;;4926746;29;20305;-72
2022/05/16 07:58:08;;;;;;;8.73;3.47;;;;;20.30;100911.00;;;;4926533;29;20226;-71
2022/05/16 08:00:55;;;;;;;4.87;3.17;;;;;20.40;100921.00;;;;4925477;29;20219;-71
2022/05/16 08:03:42;;;;;;;7.70;3.20;;;;;20.50;100930.00;;;;4922485;29;20250;-73
2022/05/16 08:06:30;;;;;;;6.77;3.37;;;;;20.50;100933.00;;;;4923778;29;20696;-73
2022/05/16 08:12:24;;;;;;;162.33;37.93;;;;;21.00;100932.00;;;;4926855;29;20210;-72
2022/05/16 08:15:11;;;;;;;43.73;12.60;;;;;21.20;100930.00;;;;4925218;29;20230;-70
2022/05/16 08:17:58;;;;;;;10.40;4.57;;;;;21.30;100922.00;;;;4923761;29;20703;-70
2022/05/16 08:20:47;;;;;;;17.47;4.50;;;;;21.30;100943.00;;;;4923019;29;20834;-72
2022/05/16 08:23:35;;;;;;;14.77;4.97;;;;;21.40;100941.00;;;;4930386;29;20864;-71
2022/05/16 08:26:21;;;;;;;4.77;3.27;;;;;21.40;100928.00;;;;4922716;29;20218;-71
2022/05/16 08:29:07;;;;;;;9.17;3.07;;;;;21.40;100933.00;;;;4917033;29;20231;-71
2022/05/16 08:31:54;;;;;;;5.00;3.20;;;;;21.40;100937.00;;;;4930732;29;20546;-73
2022/05/16 08:34:41;;;;;;;6.47;3.03;;;;;21.40;100929.00;;;;4929630;29;20231;-74
2022/05/16 08:40:41;;;;;;;10.60;3.20;;;;;21.40;100933.00;;;;4925202;29;20893;-70
2022/05/16 08:43:47;;;;;;;11.10;3.30;;;;;21.50;100942.00;;;;4928718;29;20690;-73
2022/05/16 08:46:36;;;;;;;4.37;3.20;;;;;21.70;100945.00;;;;4927068;29;20337;-71
2022/05/16 08:49:33;;;;;;;5.00;3.13;;;;;22.00;100925.00;;;;4929135;29;20295;-72
2022/05/16 08:52:32;;;;;;;6.83;3.37;;;;;22.30;100939.00;;;;4920462;29;20776;-75
2022/05/16 08:55:27;;;;;;;7.03;3.80;;;;;22.40;100940.00;;;;4925649;29;20252;-74
2022/05/16 08:58:20;;;;;;;6.40;3.60;;;;;22.30;100943.00;;;;4911269;29;20220;-73
2022/05/16 09:01:11;;;;;;;4.73;3.70;;;;;22.30;100940.00;;;;4915672;29;20224;-73
2022/05/16 09:04:02;;;;;;;5.63;3.30;;;;;22.20;100940.00;;;;4928817;29;20304;-73
2022/05/16 09:06:56;;;;;;;6.70;3.80;;;;;22.30;100940.00;;;;4929455;29;20775;-71
2022/05/16 09:09:50;;;;;;;7.87;3.73;;;;;22.10;100944.00;;;;4929302;29;20217;-73
2022/05/16 09:12:48;;;;;;;4.67;3.27;;;;;22.20;100943.00;;;;4921065;29;20371;-72
2022/05/16 09:15:42;;;;;;;4.27;3.23;;;;;22.20;100936.00;;;;4921235;29;20736;-73
2022/05/16 09:18:41;;;;;;;4.70;3.27;;;;;22.20;100942.00;;;;4929113;29;20220;-74
2022/05/16 09:21:33;;;;;;;4.30;3.57;;;;;22.30;100938.00;;;;4929006;29;20360;-71
2022/05/16 09:24:24;;;;;;;11.33;4.30;;;;;22.40;100951.00;;;;4924069;29;20296;-72
2022/05/16 09:28:34;;;;;;;8.57;3.63;;;;;22.40;100942.00;;;;4917917;29;20213;-70
2022/05/16 09:30:25;;;;;;;8.87;3.67;;;;;22.50;100947.00;;;;4924495;29;20358;-68
2022/05/16 09:33:18;;;;;;;9.33;4.27;;;;;22.60;100955.00;;;;4910305;29;20229;-75
2022/05/16 09:36:07;;;;;;;7.73;3.67;;;;;22.70;100953.00;;;;4914821;29;20239;-75
2022/05/16 09:38:53;;;;;;;5.57;3.50;;;;;22.80;100951.00;;;;4928730;29;20269;-75
2022/05/16 09:41:44;;;;;;;6.70;3.60;;;;;22.80;100953.00;;;;4921306;29;20225;-76
2022/05/16 09:44:40;;;;;;;4.83;3.37;;;;;22.80;100954.00;;;;4924362;29;20239;-77
2022/05/16 09:47:37;;;;;;;8.73;3.73;;;;;22.70;100951.00;;;;4925193;29;20220;-76
2022/05/16 09:50:27;;;;;;;8.30;4.30;;;;;22.70;100947.00;;;;4924446;29;20307;-75
2022/05/16 09:53:15;;;;;;;5.37;3.70;;;;;22.80;100952.00;;;;4917639;29;20224;-75
2022/05/16 09:56:05;;;;;;;6.60;3.37;;;;;22.80;100950.00;;;;4914527;29;20237;-76
2022/05/16 09:58:56;;;;;;;8.20;4.07;;;;;22.60;100952.00;;;;4920017;29;20219;-75
2022/05/16 10:01:51;;;;;;;8.40;3.70;;;;;22.70;100965.00;;;;4926134;29;20220;-75
2022/05/16 10:05:00;;;;;;;10.03;3.80;;;;;22.60;100969.00;;;;4927774;29;20228;-74
2022/05/16 10:08:03;;;;;;;8.27;3.93;;;;;22.70;100976.00;;;;4928100;29;20221;-76
2022/05/16 10:10:50;;;;;;;6.57;3.90;;;;;22.50;100980.00;;;;4927248;29;20922;-76
2022/05/16 10:13:37;;;;;;;10.13;3.70;;;;;22.60;100984.00;;;;4926758;29;20237;-77
2022/05/16 10:16:27;;;;;;;6.07;3.40;;;;;22.50;100990.00;;;;4927168;29;20225;-76
2022/05/16 10:19:18;;;;;;;9.23;4.40;;;;;22.70;100982.00;;;;4931700;29;20220;-74
2022/05/16 10:22:08;;;;;;;8.53;3.60;;;;;22.70;100982.00;;;;4930521;29;20253;-75
2022/05/16 10:24:59;;;;;;;6.57;3.53;;;;;22.70;100988.00;;;;4930610;29;20232;-75
2022/05/16 10:27:48;;;;;;;8.03;3.93;;;;;22.60;100985.00;;;;4931970;29;20336;-76
2022/05/16 10:33:24;;;;;;;6.40;3.87;;;;;22.70;100969.00;;;;4921445;29;20288;-75
2022/05/16 10:33:45;;;;;;;6.43;3.67;;;;;22.50;101006.00;;;;4931313;29;20240;-75
2022/05/16 10:36:33;;;;;;;8.00;4.47;;;;;22.40;100990.00;;;;4932672;29;20236;-74
2022/05/16 10:39:25;;;;;;;6.87;4.37;;;;;22.30;100992.00;;;;4932377;29;20308;-74
2022/05/16 10:42:18;;;;;;;9.80;4.70;;;;;22.30;100980.00;;;;4926161;29;20228;-75
2022/05/16 10:45:11;;;;;;;9.20;4.20;;;;;22.30;100978.00;;;;4932194;29;20233;-75
2022/05/16 10:48:05;;;;;;;8.47;4.10;;;;;22.40;100989.00;;;;4931243;29;20205;-74
2022/05/16 10:50:56;;;;;;;6.63;4.33;;;;;22.40;100989.00;;;;4924062;29;20236;-75
2022/05/16 10:53:55;;;;;;;6.87;4.13;;;;;22.60;100988.00;;;;4931747;29;20232;-74
2022/05/16 10:57:10;;;;;;;7.47;3.80;;;;;22.80;100986.00;;;;4931538;29;20236;-75
2022/05/16 11:00:07;;;;;;;8.57;4.03;;;;;23.00;100980.00;;;;4923876;29;20287;-75
2022/05/16 11:03:31;;;;;;;7.23;4.23;;;;;23.20;100985.00;;;;4921507;29;20313;-75
2022/05/16 11:06:41;;;;;;;6.57;3.80;;;;;23.50;100985.00;;;;4892009;29;20345;-75
2022/05/16 11:09:38;;;;;;;8.13;3.77;;;;;23.80;100987.00;;;;4929356;29;20220;-75
2022/05/16 11:12:30;;;;;;;6.00;3.37;;;;;23.80;100988.00;;;;4928347;29;20233;-75
2022/05/16 11:15:28;;;;;;;6.23;3.30;;;;;24.10;100986.00;;;;4930178;29;20878;-74
2022/05/16 11:18:25;;;;;;;7.17;3.70;;;;;24.10;100990.00;;;;4931163;29;20261;-75
2022/05/16 11:21:35;;;;;;;6.73;3.30;;;;;24.50;100996.00;;;;4928608;29;20264;-74
2022/05/16 11:24:32;;;;;;;6.13;3.57;;;;;24.50;100983.00;;;;4928129;29;20308;-77
2022/05/16 11:27:30;;;;;;;4.73;3.13;;;;;24.70;100989.00;;;;4931094;29;20216;-76
2022/05/16 11:30:21;;;;;;;10.00;4.03;;;;;24.80;100990.00;;;;4925673;29;20221;-77
2022/05/16 11:33:32;;;;;;;9.43;3.43;;;;;24.70;100992.00;;;;4923974;29;20204;-76
2022/05/16 11:36:26;;;;;;;8.60;3.80;;;;;24.80;100980.00;;;;4931439;29;20361;-75
2022/05/16 11:39:17;;;;;;;8.83;3.97;;;;;25.20;100979.00;;;;4924651;29;20217;-76
2022/05/16 11:42:11;;;;;;;6.07;4.00;;;;;25.60;100978.00;;;;4931331;29;20232;-76
2022/05/16 11:45:09;;;;;;;7.50;4.10;;;;;25.70;100984.00;;;;4929807;29;20249;-76
2022/05/16 11:48:00;;;;;;;6.90;3.47;;;;;26.30;100982.00;;;;4930964;29;20273;-75
2022/05/16 11:51:15;;;;;;;8.50;3.40;;;;;26.30;100977.00;;;;4923678;29;20249;-75
2022/05/16 11:54:05;;;;;;;5.20;3.30;;;;;26.80;100968.00;;;;4922620;29;20261;-76
2022/05/16 12:03:20;;;;;;;6.97;3.50;;;;;26.70;100965.00;;;;4923602;29;20901;-76
2022/05/16 12:06:27;;;;;;;4.40;3.30;;;;;26.90;100962.00;;;;4925964;29;20212;-74
2022/05/16 12:09:21;;;;;;;5.90;3.10;;;;;27.00;100971.00;;;;4930074;29;20228;-74
2022/05/16 12:12:11;;;;;;;6.25;3.05;;;;;26.80;100978.00;;;;4928124;29;20273;-72
2022/05/16 12:15:12;;;;;;;7.70;2.92;;;;;27.00;100967.00;;;;4928871;29;20398;-76
2022/05/16 12:18:01;;;;;;;3.63;2.90;;;;;27.00;100954.00;;;;4926851;29;20221;-74
2022/05/16 12:21:04;;;;;;;5.65;2.70;;;;;27.40;100959.00;;;;4926458;29;20208;-74
2022/05/16 12:23:59;;;;;;;5.68;2.92;;;;;27.70;100963.00;;;;4922591;29;20377;-73
2022/05/16 12:27:03;;;;;;;6.15;3.00;;;;;28.10;100968.00;;;;4927585;29;20220;-75
2022/05/16 12:29:52;;;;;;;6.03;2.70;;;;;28.10;100955.00;;;;4930240;29;20341;-74
2022/05/16 12:32:52;;;;;;;5.60;2.70;;;;;28.30;100951.00;;;;4922316;29;20249;-74
2022/05/16 12:35:44;;;;;;;3.67;2.67;;;;;28.60;100962.00;;;;4926795;29;20249;-74
2022/05/16 12:38:32;;;;;;;6.82;2.80;;;;;28.70;100963.00;;;;4913992;29;20225;-75
2022/05/16 12:41:47;;;;;;;4.13;2.85;;;;;28.60;100965.00;;;;4928271;29;20605;-75
2022/05/16 12:44:44;;;;;;;5.20;2.65;;;;;28.50;100956.00;;;;4932033;29;20249;-74
2022/05/16 12:48:09;;;;;;;5.65;2.70;;;;;28.90;100960.00;;;;4932818;29;20220;-75
2022/05/16 12:51:12;;;;;;;6.15;2.42;;;;;29.00;100971.00;;;;4932105;29;20221;-76
2022/05/16 12:54:36;;;;;;;8.48;2.63;;;;;28.80;100977.00;;;;4927719;29;20316;-77
2022/05/16 12:57:42;;;;;;;3.30;2.30;;;;;28.20;100986.00;;;;4929401;29;20732;-73
2022/05/16 13:00:32;;;;;;;6.93;2.67;;;;;27.60;100993.00;;;;4919227;29;20221;-73
2022/05/16 13:03:39;;;;;;;7.15;2.88;;;;;27.20;100985.00;;;;4918537;29;20229;-72
2022/05/16 13:06:45;;;;;;;5.68;2.53;;;;;26.70;100983.00;;;;4924191;29;20296;-75
2022/05/16 13:09:55;;;;;;;4.47;2.50;;;;;26.30;100980.00;;;;4917384;29;20846;-74
2022/05/16 13:12:55;;;;;;;6.25;2.45;;;;;25.90;100981.00;;;;4919756;29;20256;-75
2022/05/16 13:15:50;;;;;;;4.53;2.70;;;;;25.50;100979.00;;;;4927719;29;20218;-74
2022/05/16 13:18:44;;;;;;;3.83;2.60;;;;;25.30;100988.00;;;;4927922;29;20345;-76
2022/05/16 13:21:38;;;;;;;3.78;2.75;;;;;25.00;101015.00;;;;4926195;29;20850;-74
2022/05/16 13:24:25;;;;;;;3.63;2.83;;;;;25.10;101024.00;;;;4926900;29;20340;-75
2022/05/16 13:30:27;;;;;;;4.37;2.20;;;;;24.40;101019.00;;;;4928380;29;20298;-75
2022/05/16 13:33:25;;;;;;;5.07;2.23;;;;;24.00;101022.00;;;;4925296;29;20289;-72
2022/05/16 13:36:17;;;;;;;5.70;1.90;;;;;23.90;101026.00;;;;4927869;29;20610;-74
2022/05/16 13:39:11;;;;;;;3.40;2.60;;;;;23.20;101031.00;;;;4924759;29;20299;-75
2022/05/16 13:42:00;;;;;;;4.80;2.37;;;;;22.80;101031.00;;;;4911412;29;20269;-76
2022/05/16 13:44:47;;;;;;;6.03;2.23;;;;;22.60;101024.00;;;;4917372;29;20903;-75
2022/05/16 13:47:40;;;;;;;5.97;2.57;;;;;22.50;101028.00;;;;4928100;29;20221;-74
2022/05/16 13:50:29;;;;;;;3.33;2.60;;;;;22.30;101028.00;;;;4910000;29;20221;-75
2022/05/16 13:53:16;;;;;;;2.47;2.20;;;;;22.20;101028.00;;;;4922120;29;20719;-75
2022/05/16 13:56:02;;;;;;;2.57;2.23;;;;;22.10;101030.00;;;;4929017;29;20536;-75
2022/05/16 13:58:48;;;;;;;3.67;2.40;;;;;22.00;101025.00;;;;4921283;29;20223;-77
2022/05/16 14:01:35;;;;;;;3.50;2.67;;;;;22.10;101036.00;;;;4918253;29;20249;-75
2022/05/16 14:04:28;;;;;;;2.67;2.30;;;;;22.10;101038.00;;;;4919015;29;20242;-76
2022/05/16 14:07:19;;;;;;;4.17;2.67;;;;;22.10;101050.00;;;;4923122;29;20390;-75
2022/05/16 14:10:09;;;;;;;3.37;2.53;;;;;22.10;101061.00;;;;4927595;29;20411;-76
2022/05/16 14:12:59;;;;;;;5.40;3.00;;;;;22.10;101072.00;;;;4918646;29;20243;-75
2022/05/16 14:15:51;;;;;;;6.50;2.57;;;;;21.90;101064.00;;;;4924210;29;20231;-74
2022/05/16 14:18:43;;;;;;;3.80;2.40;;;;;21.80;101063.00;;;;4918913;29;20299;-75
2022/05/16 14:21:47;;;;;;;3.80;3.20;;;;;21.80;101082.00;;;;4919267;29;20360;-74
2022/05/16 14:24:36;;;;;;;3.93;2.73;;;;;21.60;101083.00;;;;4921357;29;20239;-74
2022/05/16 14:27:25;;;;;;;5.73;3.43;;;;;21.50;101079.00;;;;4929116;29;20236;-75
2022/05/16 14:30:17;;;;;;;4.10;3.00;;;;;21.40;101080.00;;;;4920453;29;20206;-72
2022/05/16 14:33:14;;;;;;;3.30;2.93;;;;;21.40;101086.00;;;;4919349;29;20705;-75
2022/05/16 14:36:04;;;;;;;4.70;3.10;;;;;21.20;101082.00;;;;4923401;29;20772;-74
2022/05/16 14:38:53;;;;;;;4.00;3.23;;;;;21.20;101080.00;;;;4922844;29;20287;-75
2022/05/16 14:41:55;;;;;;;4.77;3.30;;;;;21.20;101076.00;;;;4924253;29;20643;-76